sensor_id;sensor_type;location;lat;lon;timestamp;pressure;altitude;pressure_sealevel;temperature;humidity
54666;BME280;40566;50.006;36.180;2023-09-12T00:01:57;99945.06;;;13.92;70.44
54666;BME280;40566;50.006;36.180;2023-09-12T00:06:58;99953.91;;;13.87;70.44
54666;BME280;40566;50.006;36.180;2023-09-12T00:11:58;99944.50;;;13.83;70.63
54666;BME280;40566;50.006;36.180;2023-09-12T00:17:00;99938.59;;;13.80;70.57
54666;BME280;40566;50.006;36.180;2023-09-12T00:22:00;99943.84;;;13.78;70.59
54666;BME280;40566;50.006;36.180;2023-09-12T00:27:01;99942.19;;;13.76;70.82
54666;BME280;40566;50.006;36.180;2023-09-12T00:32:01;99937.06;;;13.74;70.98
54666;BME280;40566;50.006;36.180;2023-09-12T00:37:02;99941.38;;;13.75;71.17
54666;BME280;40566;50.006;36.180;2023-09-12T00:42:03;99946.38;;;13.80;71.04
54666;BME280;40566;50.006;36.180;2023-09-12T00:47:04;99932.31;;;13.85;70.82
54666;BME280;40566;50.006;36.180;2023-09-12T00:52:06;99933.94;;;13.88;70.75
54666;BME280;40566;50.006;36.180;2023-09-12T00:57:07;99939.88;;;13.92;70.84
54666;BME280;40566;50.006;36.180;2023-09-12T01:02:07;99940.66;;;13.94;71.05
54666;BME280;40566;50.006;36.180;2023-09-12T01:07:08;99936.25;;;13.96;70.95
54666;BME280;40566;50.006;36.180;2023-09-12T01:12:09;99944.00;;;13.97;71.07
54666;BME280;40566;50.006;36.180;2023-09-12T01:17:13;99946.53;;;13.99;70.94
54666;BME280;40566;50.006;36.180;2023-09-12T01:27:52;99935.06;;;14.04;70.76
54666;BME280;40566;50.006;36.180;2023-09-12T01:32:54;99937.59;;;14.06;70.78
54666;BME280;40566;50.006;36.180;2023-09-12T01:37:55;99933.41;;;14.02;70.71
54666;BME280;40566;50.006;36.180;2023-09-12T01:42:56;99930.78;;;14.02;70.80
54666;BME280;40566;50.006;36.180;2023-09-12T01:47:58;99932.59;;;14.00;70.98
54666;BME280;40566;50.006;36.180;2023-09-12T01:53:00;99930.88;;;14.00;71.17
54666;BME280;40566;50.006;36.180;2023-09-12T01:58:01;99930.78;;;14.02;71.26
54666;BME280;40566;50.006;36.180;2023-09-12T02:03:03;99929.97;;;14.01;71.06
54666;BME280;40566;50.006;36.180;2023-09-12T02:08:04;99944.91;;;13.96;71.33
54666;BME280;40566;50.006;36.180;2023-09-12T02:13:05;99937.31;;;13.90;71.57
54666;BME280;40566;50.006;36.180;2023-09-12T02:18:06;99952.31;;;13.83;71.41
54666;BME280;40566;50.006;36.180;2023-09-12T02:23:06;99952.56;;;13.77;71.58
54666;BME280;40566;50.006;36.180;2023-09-12T02:28:07;99954.38;;;13.75;71.16
54666;BME280;40566;50.006;36.180;2023-09-12T02:33:08;99954.59;;;13.69;71.56
54666;BME280;40566;50.006;36.180;2023-09-12T02:38:08;99955.66;;;13.63;71.58
54666;BME280;40566;50.006;36.180;2023-09-12T02:43:09;99955.72;;;13.62;71.60
54666;BME280;40566;50.006;36.180;2023-09-12T02:48:10;99966.34;;;13.56;71.78
54666;BME280;40566;50.006;36.180;2023-09-12T02:53:10;99964.66;;;13.55;71.73
54666;BME280;40566;50.006;36.180;2023-09-12T02:58:11;99970.84;;;13.51;71.50
54666;BME280;40566;50.006;36.180;2023-09-12T03:03:11;99967.47;;;13.48;71.28
54666;BME280;40566;50.006;36.180;2023-09-12T03:08:12;99975.47;;;13.42;71.33
54666;BME280;40566;50.006;36.180;2023-09-12T03:13:13;99976.63;;;13.35;71.48
54666;BME280;40566;50.006;36.180;2023-09-12T03:18:13;99972.53;;;13.26;71.52
54666;BME280;40566;50.006;36.180;2023-09-12T03:23:14;99978.72;;;13.24;71.88
54666;BME280;40566;50.006;36.180;2023-09-12T03:28:14;99965.09;;;13.17;71.91
54666;BME280;40566;50.006;36.180;2023-09-12T03:33:16;99975.38;;;13.20;72.03
54666;BME280;40566;50.006;36.180;2023-09-12T03:38:16;99980.72;;;13.16;72.38
54666;BME280;40566;50.006;36.180;2023-09-12T03:43:17;99976.28;;;13.19;72.48
54666;BME280;40566;50.006;36.180;2023-09-12T03:48:27;99989.97;;;13.23;72.51
54666;BME280;40566;50.006;36.180;2023-09-12T03:53:30;99987.09;;;13.32;72.23
54666;BME280;40566;50.006;36.180;2023-09-12T03:58:31;99991.41;;;13.33;72.04
54666;BME280;40566;50.006;36.180;2023-09-12T04:03:32;99993.78;;;13.39;72.18
54666;BME280;40566;50.006;36.180;2023-09-12T04:08:32;99997.66;;;13.53;72.15
54666;BME280;40566;50.006;36.180;2023-09-12T04:13:33;100001.72;;;13.60;71.93
54666;BME280;40566;50.006;36.180;2023-09-12T04:18:33;100003.16;;;13.68;71.79
54666;BME280;40566;50.006;36.180;2023-09-12T04:23:34;100004.72;;;13.73;71.92
54666;BME280;40566;50.006;36.180;2023-09-12T04:28:35;100015.78;;;13.78;71.72
54666;BME280;40566;50.006;36.180;2023-09-12T04:33:35;100023.50;;;13.81;71.74
54666;BME280;40566;50.006;36.180;2023-09-12T04:38:36;100027.63;;;13.86;71.77
54666;BME280;40566;50.006;36.180;2023-09-12T04:43:37;100027.41;;;13.93;71.59
54666;BME280;40566;50.006;36.180;2023-09-12T04:48:38;100014.22;;;13.97;71.73
54666;BME280;40566;50.006;36.180;2023-09-12T04:53:39;100028.75;;;14.03;71.46
54666;BME280;40566;50.006;36.180;2023-09-12T04:58:40;100026.75;;;14.09;71.20
54666;BME280;40566;50.006;36.180;2023-09-12T05:03:41;100025.56;;;14.18;70.82
54666;BME280;40566;50.006;36.180;2023-09-12T05:08:41;100030.53;;;14.24;70.63
54666;BME280;40566;50.006;36.180;2023-09-12T05:13:42;100044.34;;;14.26;70.87
54666;BME280;40566;50.006;36.180;2023-09-12T05:18:43;100035.59;;;14.27;70.52
54666;BME280;40566;50.006;36.180;2023-09-12T05:23:43;100044.13;;;14.31;70.36
54666;BME280;40566;50.006;36.180;2023-09-12T05:28:44;100045.31;;;14.46;70.09
54666;BME280;40566;50.006;36.180;2023-09-12T05:33:46;100046.56;;;14.59;70.02
54666;BME280;40566;50.006;36.180;2023-09-12T05:38:46;100051.94;;;14.77;69.84
54666;BME280;40566;50.006;36.180;2023-09-12T05:43:47;100053.66;;;14.98;69.32
54666;BME280;40566;50.006;36.180;2023-09-12T05:48:48;100047.56;;;15.20;69.33
54666;BME280;40566;50.006;36.180;2023-09-12T05:53:49;100050.44;;;15.34;68.92
54666;BME280;40566;50.006;36.180;2023-09-12T05:58:49;100058.88;;;15.60;68.45
54666;BME280;40566;50.006;36.180;2023-09-12T06:03:50;100060.75;;;15.78;68.22
54666;BME280;40566;50.006;36.180;2023-09-12T06:08:51;100066.94;;;15.76;68.03
54666;BME280;40566;50.006;36.180;2023-09-12T06:13:53;100063.28;;;15.80;68.06
54666;BME280;40566;50.006;36.180;2023-09-12T06:18:54;100074.78;;;15.95;67.75
54666;BME280;40566;50.006;36.180;2023-09-12T06:24:24;100060.34;;;16.06;67.11
54666;BME280;40566;50.006;36.180;2023-09-12T06:29:24;100075.53;;;16.17;66.92
54666;BME280;40566;50.006;36.180;2023-09-12T06:34:25;100078.53;;;16.27;66.76
54666;BME280;40566;50.006;36.180;2023-09-12T06:39:27;100077.69;;;16.26;67.11
54666;BME280;40566;50.006;36.180;2023-09-12T06:44:28;100082.56;;;16.34;66.81
54666;BME280;40566;50.006;36.180;2023-09-12T06:49:28;100080.50;;;16.41;66.77
54666;BME280;40566;50.006;36.180;2023-09-12T06:54:29;100086.72;;;16.57;66.20
54666;BME280;40566;50.006;36.180;2023-09-12T06:59:30;100081.19;;;16.63;65.99
54666;BME280;40566;50.006;36.180;2023-09-12T07:04:30;100080.78;;;16.73;65.60
54666;BME280;40566;50.006;36.180;2023-09-12T07:09:31;100077.72;;;16.82;65.51
54666;BME280;40566;50.006;36.180;2023-09-12T07:14:32;100078.59;;;16.82;65.51
54666;BME280;40566;50.006;36.180;2023-09-12T07:19:32;100084.75;;;16.80;65.84
54666;BME280;40566;50.006;36.180;2023-09-12T07:24:33;100083.44;;;16.90;65.51
54666;BME280;40566;50.006;36.180;2023-09-12T07:29:33;100088.16;;;17.01;65.02
54666;BME280;40566;50.006;36.180;2023-09-12T07:34:34;100093.47;;;17.17;65.27
54666;BME280;40566;50.006;36.180;2023-09-12T07:39:34;100082.69;;;17.40;64.27
54666;BME280;40566;50.006;36.180;2023-09-12T07:44:35;100081.53;;;17.63;63.64
54666;BME280;40566;50.006;36.180;2023-09-12T07:49:35;100082.19;;;17.84;63.00
54666;BME280;40566;50.006;36.180;2023-09-12T07:54:36;100080.28;;;18.04;62.94
54666;BME280;40566;50.006;36.180;2023-09-12T07:59:37;100082.59;;;18.26;62.28
54666;BME280;40566;50.006;36.180;2023-09-12T08:04:37;100082.94;;;18.36;62.29
54666;BME280;40566;50.006;36.180;2023-09-12T08:14:53;100082.78;;;18.71;60.86
54666;BME280;40566;50.006;36.180;2023-09-12T08:19:53;100082.50;;;18.91;59.90
54666;BME280;40566;50.006;36.180;2023-09-12T08:24:54;100085.41;;;19.17;59.34
54666;BME280;40566;50.006;36.180;2023-09-12T08:29:54;100072.63;;;19.41;58.13
54666;BME280;40566;50.006;36.180;2023-09-12T08:34:55;100075.28;;;19.55;57.96
54666;BME280;40566;50.006;36.180;2023-09-12T08:39:55;100079.81;;;19.68;57.89
54666;BME280;40566;50.006;36.180;2023-09-12T08:44:59;100083.28;;;19.83;57.87
54666;BME280;40566;50.006;36.180;2023-09-12T08:50:00;100071.03;;;19.97;57.53
54666;BME280;40566;50.006;36.180;2023-09-12T08:55:02;100074.09;;;20.04;57.31
54666;BME280;40566;50.006;36.180;2023-09-12T09:00:05;100065.19;;;20.21;56.54
54666;BME280;40566;50.006;36.180;2023-09-12T09:05:11;100067.63;;;20.24;56.12
54666;BME280;40566;50.006;36.180;2023-09-12T09:10:17;100061.78;;;20.33;55.59
54666;BME280;40566;50.006;36.180;2023-09-12T09:20:26;100058.47;;;20.44;54.97
54666;BME280;40566;50.006;36.180;2023-09-12T09:25:28;100072.16;;;20.49;54.79
54666;BME280;40566;50.006;36.180;2023-09-12T09:30:42;100060.31;;;20.56;54.17
54666;BME280;40566;50.006;36.180;2023-09-12T09:35:46;100054.41;;;20.53;54.19
54666;BME280;40566;50.006;36.180;2023-09-12T09:40:47;100066.81;;;20.51;54.49
54666;BME280;40566;50.006;36.180;2023-09-12T09:45:48;100063.06;;;20.82;53.55
54666;BME280;40566;50.006;36.180;2023-09-12T09:50:49;100065.22;;;21.03;53.42
54666;BME280;40566;50.006;36.180;2023-09-12T09:55:50;100071.78;;;21.10;52.88
54666;BME280;40566;50.006;36.180;2023-09-12T10:00:51;100059.81;;;21.95;50.46
54666;BME280;40566;50.006;36.180;2023-09-12T10:05:53;100050.38;;;21.54;51.44
54666;BME280;40566;50.006;36.180;2023-09-12T10:10:55;100054.78;;;21.54;50.92
54666;BME280;40566;50.006;36.180;2023-09-12T10:15:56;100048.53;;;21.42;50.86
54666;BME280;40566;50.006;36.180;2023-09-12T10:21:07;100041.31;;;21.46;50.54
54666;BME280;40566;50.006;36.180;2023-09-12T10:26:11;100043.75;;;21.49;50.98
54666;BME280;40566;50.006;36.180;2023-09-12T10:31:12;100038.88;;;21.43;50.64
54666;BME280;40566;50.006;36.180;2023-09-12T10:36:14;100038.13;;;21.41;50.42
54666;BME280;40566;50.006;36.180;2023-09-12T10:41:15;100042.75;;;21.37;50.39
54666;BME280;40566;50.006;36.180;2023-09-12T10:46:16;100038.56;;;21.60;49.45
54666;BME280;40566;50.006;36.180;2023-09-12T10:51:18;100023.94;;;21.56;49.48
54666;BME280;40566;50.006;36.180;2023-09-12T10:56:20;100025.94;;;21.65;49.08
54666;BME280;40566;50.006;36.180;2023-09-12T11:01:25;100023.28;;;21.78;48.55
54666;BME280;40566;50.006;36.180;2023-09-12T11:06:29;100026.28;;;21.61;48.56
54666;BME280;40566;50.006;36.180;2023-09-12T11:11:30;100033.97;;;22.26;47.29
54666;BME280;40566;50.006;36.180;2023-09-12T11:16:32;100024.78;;;22.19;46.60
54666;BME280;40566;50.006;36.180;2023-09-12T11:21:33;100030.09;;;21.93;47.60
54666;BME280;40566;50.006;36.180;2023-09-12T11:26:33;100033.03;;;22.02;46.80
54666;BME280;40566;50.006;36.180;2023-09-12T11:31:34;100027.47;;;22.06;46.61
54666;BME280;40566;50.006;36.180;2023-09-12T11:36:41;100010.25;;;22.50;45.14
54666;BME280;40566;50.006;36.180;2023-09-12T11:41:42;100019.09;;;22.73;44.49
54666;BME280;40566;50.006;36.180;2023-09-12T11:46:43;100018.59;;;22.44;44.59
54666;BME280;40566;50.006;36.180;2023-09-12T11:51:51;100004.50;;;21.95;45.42
54666;BME280;40566;50.006;36.180;2023-09-12T11:56:52;100008.16;;;22.06;45.57
54666;BME280;40566;50.006;36.180;2023-09-12T12:02:00;100013.16;;;22.34;45.28
54666;BME280;40566;50.006;36.180;2023-09-12T12:07:01;100000.75;;;23.07;44.15
54666;BME280;40566;50.006;36.180;2023-09-12T12:12:12;99999.81;;;23.20;44.14
54666;BME280;40566;50.006;36.180;2023-09-12T12:17:16;99990.22;;;23.30;43.79
54666;BME280;40566;50.006;36.180;2023-09-12T12:22:17;100002.88;;;22.67;45.03
54666;BME280;40566;50.006;36.180;2023-09-12T12:27:18;99994.53;;;22.25;45.41
54666;BME280;40566;50.006;36.180;2023-09-12T12:32:19;100013.38;;;21.82;45.63
54666;BME280;40566;50.006;36.180;2023-09-12T12:37:21;100005.91;;;21.75;44.76
54666;BME280;40566;50.006;36.180;2023-09-12T12:42:23;100004.53;;;21.70;44.76
54666;BME280;40566;50.006;36.180;2023-09-12T12:47:32;99990.53;;;21.69;44.47
54666;BME280;40566;50.006;36.180;2023-09-12T12:52:33;99986.66;;;21.62;44.74
54666;BME280;40566;50.006;36.180;2023-09-12T12:57:41;99978.00;;;21.60;44.77
54666;BME280;40566;50.006;36.180;2023-09-12T13:02:44;99979.81;;;21.59;44.80
54666;BME280;40566;50.006;36.180;2023-09-12T13:07:45;99994.34;;;21.65;44.54
54666;BME280;40566;50.006;36.180;2023-09-12T13:12:46;99987.19;;;21.67;44.43
54666;BME280;40566;50.006;36.180;2023-09-12T13:17:47;99986.66;;;21.62;43.86
54666;BME280;40566;50.006;36.180;2023-09-12T13:22:47;99996.44;;;21.60;44.09
54666;BME280;40566;50.006;36.180;2023-09-12T13:27:48;99995.41;;;21.63;44.18
54666;BME280;40566;50.006;36.180;2023-09-12T13:32:49;99994.78;;;21.59;44.40
54666;BME280;40566;50.006;36.180;2023-09-12T13:37:49;99991.31;;;21.46;45.01
54666;BME280;40566;50.006;36.180;2023-09-12T13:42:50;99995.84;;;21.44;45.37
54666;BME280;40566;50.006;36.180;2023-09-12T13:47:51;99999.50;;;21.41;45.17
54666;BME280;40566;50.006;36.180;2023-09-12T13:52:54;99984.13;;;21.35;45.48
54666;BME280;40566;50.006;36.180;2023-09-12T13:57:55;99996.00;;;21.28;45.64
54666;BME280;40566;50.006;36.180;2023-09-12T14:02:55;99995.59;;;21.21;45.79
54666;BME280;40566;50.006;36.180;2023-09-12T14:07:56;99999.78;;;21.11;45.79
54666;BME280;40566;50.006;36.180;2023-09-12T14:13:00;99984.09;;;20.96;45.96
54666;BME280;40566;50.006;36.180;2023-09-12T14:18:00;100003.00;;;20.76;46.32
54666;BME280;40566;50.006;36.180;2023-09-12T14:23:01;100002.66;;;20.68;46.54
54666;BME280;40566;50.006;36.180;2023-09-12T14:28:04;100003.03;;;20.62;46.27
54666;BME280;40566;50.006;36.180;2023-09-12T14:33:06;100001.09;;;20.51;46.25
54666;BME280;40566;50.006;36.180;2023-09-12T14:38:07;100022.84;;;20.40;46.48
54666;BME280;40566;50.006;36.180;2023-09-12T14:43:08;100026.03;;;20.31;46.61
54666;BME280;40566;50.006;36.180;2023-09-12T14:48:08;100022.31;;;20.20;46.81
54666;BME280;40566;50.006;36.180;2023-09-12T14:53:10;100014.09;;;20.12;46.73
54666;BME280;40566;50.006;36.180;2023-09-12T14:58:14;100019.69;;;20.06;46.82
54666;BME280;40566;50.006;36.180;2023-09-12T15:03:16;100030.97;;;19.94;46.97
54666;BME280;40566;50.006;36.180;2023-09-12T15:08:17;100035.78;;;19.87;47.17
54666;BME280;40566;50.006;36.180;2023-09-12T15:13:18;100035.41;;;19.79;47.38
54666;BME280;40566;50.006;36.180;2023-09-12T15:18:20;100042.22;;;19.67;47.54
54666;BME280;40566;50.006;36.180;2023-09-12T15:23:20;100049.72;;;19.59;47.86
54666;BME280;40566;50.006;36.180;2023-09-12T15:28:23;100050.06;;;19.53;47.71
54666;BME280;40566;50.006;36.180;2023-09-12T15:33:24;100041.91;;;19.43;47.88
54666;BME280;40566;50.006;36.180;2023-09-12T15:38:27;100040.88;;;19.31;48.28
54666;BME280;40566;50.006;36.180;2023-09-12T15:43:28;100060.88;;;19.18;48.68
54666;BME280;40566;50.006;36.180;2023-09-12T15:48:28;100067.78;;;19.05;48.67
54666;BME280;40566;50.006;36.180;2023-09-12T15:53:29;100069.31;;;18.93;49.14
54666;BME280;40566;50.006;36.180;2023-09-12T15:58:30;100071.63;;;18.83;49.45
54666;BME280;40566;50.006;36.180;2023-09-12T16:03:34;100063.31;;;18.75;49.36
54666;BME280;40566;50.006;36.180;2023-09-12T16:08:34;100077.97;;;18.63;50.22
54666;BME280;40566;50.006;36.180;2023-09-12T16:13:35;100078.56;;;18.52;50.20
54666;BME280;40566;50.006;36.180;2023-09-12T16:18:35;100080.75;;;18.44;50.36
54666;BME280;40566;50.006;36.180;2023-09-12T16:23:38;100073.00;;;18.27;51.11
54666;BME280;40566;50.006;36.180;2023-09-12T16:28:38;100093.59;;;18.17;51.38
54666;BME280;40566;50.006;36.180;2023-09-12T16:33:39;100093.38;;;18.04;51.73
54666;BME280;40566;50.006;36.180;2023-09-12T16:38:39;100091.56;;;17.89;52.41
54666;BME280;40566;50.006;36.180;2023-09-12T16:43:40;100094.13;;;17.73;52.96
54666;BME280;40566;50.006;36.180;2023-09-12T16:48:40;100098.22;;;17.61;53.61
54666;BME280;40566;50.006;36.180;2023-09-12T16:53:42;100105.91;;;17.47;54.27
54666;BME280;40566;50.006;36.180;2023-09-12T16:58:43;100114.53;;;17.31;54.54
54666;BME280;40566;50.006;36.180;2023-09-12T17:03:44;100116.75;;;17.21;54.75
54666;BME280;40566;50.006;36.180;2023-09-12T17:08:44;100121.50;;;17.13;54.80
54666;BME280;40566;50.006;36.180;2023-09-12T17:13:45;100127.19;;;17.04;55.25
54666;BME280;40566;50.006;36.180;2023-09-12T17:18:46;100128.47;;;16.95;55.25
54666;BME280;40566;50.006;36.180;2023-09-12T17:23:46;100135.84;;;16.87;55.05
54666;BME280;40566;50.006;36.180;2023-09-12T17:28:47;100130.88;;;16.81;55.28
54666;BME280;40566;50.006;36.180;2023-09-12T17:33:48;100132.25;;;16.71;55.78
54666;BME280;40566;50.006;36.180;2023-09-12T17:38:49;100134.34;;;16.62;55.91
54666;BME280;40566;50.006;36.180;2023-09-12T17:43:49;100134.63;;;16.56;56.10
54666;BME280;40566;50.006;36.180;2023-09-12T17:48:51;100135.97;;;16.46;56.11
54666;BME280;40566;50.006;36.180;2023-09-12T17:53:51;100137.25;;;16.37;56.59
54666;BME280;40566;50.006;36.180;2023-09-12T17:58:52;100131.59;;;16.28;56.79
54666;BME280;40566;50.006;36.180;2023-09-12T18:03:53;100139.78;;;16.20;57.38
54666;BME280;40566;50.006;36.180;2023-09-12T18:08:54;100143.50;;;16.14;57.19
54666;BME280;40566;50.006;36.180;2023-09-12T18:13:55;100134.25;;;16.07;57.63
54666;BME280;40566;50.006;36.180;2023-09-12T18:18:56;100137.13;;;16.01;57.58
54666;BME280;40566;50.006;36.180;2023-09-12T18:23:57;100135.78;;;15.92;57.55
54666;BME280;40566;50.006;36.180;2023-09-12T18:28:57;100136.88;;;15.86;57.82
54666;BME280;40566;50.006;36.180;2023-09-12T18:33:59;100127.50;;;15.82;58.32
54666;BME280;40566;50.006;36.180;2023-09-12T18:38:59;100135.59;;;15.76;58.61
54666;BME280;40566;50.006;36.180;2023-09-12T18:44:01;100124.53;;;15.70;58.77
54666;BME280;40566;50.006;36.180;2023-09-12T18:49:02;100130.72;;;15.67;58.81
54666;BME280;40566;50.006;36.180;2023-09-12T18:54:03;100130.22;;;15.59;58.87
54666;BME280;40566;50.006;36.180;2023-09-12T18:59:04;100133.03;;;15.54;59.23
54666;BME280;40566;50.006;36.180;2023-09-12T19:04:21;100115.94;;;15.47;59.29
54666;BME280;40566;50.006;36.180;2023-09-12T19:09:23;100142.22;;;15.42;59.80
54666;BME280;40566;50.006;36.180;2023-09-12T19:14:25;100135.53;;;15.35;59.88
54666;BME280;40566;50.006;36.180;2023-09-12T19:19:26;100136.69;;;15.28;59.60
54666;BME280;40566;50.006;36.180;2023-09-12T19:24:26;100136.13;;;15.21;59.74
54666;BME280;40566;50.006;36.180;2023-09-12T19:29:27;100136.16;;;15.20;59.79
54666;BME280;40566;50.006;36.180;2023-09-12T19:34:28;100140.66;;;15.16;59.96
54666;BME280;40566;50.006;36.180;2023-09-12T19:39:28;100137.34;;;15.13;60.21
54666;BME280;40566;50.006;36.180;2023-09-12T19:44:29;100141.03;;;15.07;60.32
54666;BME280;40566;50.006;36.180;2023-09-12T19:49:30;100142.06;;;15.03;60.54
54666;BME280;40566;50.006;36.180;2023-09-12T19:54:31;100146.56;;;14.99;60.59
54666;BME280;40566;50.006;36.180;2023-09-12T19:59:34;100144.97;;;14.95;60.57
54666;BME280;40566;50.006;36.180;2023-09-12T20:04:34;100140.81;;;14.91;60.56
54666;BME280;40566;50.006;36.180;2023-09-12T20:09:35;100144.66;;;14.81;61.09
54666;BME280;40566;50.006;36.180;2023-09-12T20:14:37;100135.25;;;14.77;61.69
54666;BME280;40566;50.006;36.180;2023-09-12T20:19:38;100137.88;;;14.77;61.21
54666;BME280;40566;50.006;36.180;2023-09-12T20:24:38;100142.13;;;14.79;61.25
54666;BME280;40566;50.006;36.180;2023-09-12T20:29:39;100148.41;;;14.74;61.20
54666;BME280;40566;50.006;36.180;2023-09-12T20:34:39;100150.47;;;14.65;61.26
54666;BME280;40566;50.006;36.180;2023-09-12T20:39:40;100150.63;;;14.61;61.22
54666;BME280;40566;50.006;36.180;2023-09-12T20:44:41;100153.44;;;14.55;61.49
54666;BME280;40566;50.006;36.180;2023-09-12T20:49:41;100146.66;;;14.51;61.58
54666;BME280;40566;50.006;36.180;2023-09-12T20:54:44;100143.44;;;14.44;61.63
54666;BME280;40566;50.006;36.180;2023-09-12T20:59:44;100143.72;;;14.36;61.31
54666;BME280;40566;50.006;36.180;2023-09-12T21:04:45;100148.28;;;14.29;61.44
54666;BME280;40566;50.006;36.180;2023-09-12T21:09:46;100139.03;;;14.22;61.78
54666;BME280;40566;50.006;36.180;2023-09-12T21:14:46;100149.69;;;14.15;62.12
54666;BME280;40566;50.006;36.180;2023-09-12T21:19:47;100147.19;;;14.12;62.25
54666;BME280;40566;50.006;36.180;2023-09-12T21:24:47;100149.19;;;14.05;62.43
54666;BME280;40566;50.006;36.180;2023-09-12T21:29:48;100160.69;;;13.98;62.97
54666;BME280;40566;50.006;36.180;2023-09-12T21:34:49;100157.31;;;13.96;63.00
54666;BME280;40566;50.006;36.180;2023-09-12T21:39:49;100154.59;;;13.99;62.83
54666;BME280;40566;50.006;36.180;2023-09-12T21:44:50;100153.91;;;13.94;63.12
54666;BME280;40566;50.006;36.180;2023-09-12T21:49:50;100159.28;;;13.89;63.17
54666;BME280;40566;50.006;36.180;2023-09-12T21:54:51;100152.44;;;13.86;62.92
54666;BME280;40566;50.006;36.180;2023-09-12T21:59:52;100160.47;;;13.80;62.71
54666;BME280;40566;50.006;36.180;2023-09-12T22:04:52;100165.03;;;13.72;62.84
54666;BME280;40566;50.006;36.180;2023-09-12T22:09:53;100163.53;;;13.66;63.05
54666;BME280;40566;50.006;36.180;2023-09-12T22:14:54;100157.59;;;13.63;63.33
54666;BME280;40566;50.006;36.180;2023-09-12T22:19:54;100160.31;;;13.58;63.46
54666;BME280;40566;50.006;36.180;2023-09-12T22:24:55;100157.78;;;13.57;63.44
54666;BME280;40566;50.006;36.180;2023-09-12T22:29:56;100148.50;;;13.49;63.16
54666;BME280;40566;50.006;36.180;2023-09-12T22:34:56;100151.34;;;13.42;63.29
54666;BME280;40566;50.006;36.180;2023-09-12T22:39:57;100150.78;;;13.32;63.64
54666;BME280;40566;50.006;36.180;2023-09-12T22:44:57;100150.00;;;13.30;63.59
54666;BME280;40566;50.006;36.180;2023-09-12T22:49:58;100150.16;;;13.24;64.26
54666;BME280;40566;50.006;36.180;2023-09-12T22:54:59;100149.16;;;13.28;64.06
54666;BME280;40566;50.006;36.180;2023-09-12T23:00:00;100148.34;;;13.26;64.47
54666;BME280;40566;50.006;36.180;2023-09-12T23:05:00;100150.16;;;13.24;64.41
54666;BME280;40566;50.006;36.180;2023-09-12T23:10:02;100145.25;;;13.15;64.48
54666;BME280;40566;50.006;36.180;2023-09-12T23:15:04;100137.78;;;13.05;64.71
54666;BME280;40566;50.006;36.180;2023-09-12T23:20:05;100143.19;;;12.98;65.17
54666;BME280;40566;50.006;36.180;2023-09-12T23:25:07;100138.00;;;12.98;65.08
54666;BME280;40566;50.006;36.180;2023-09-12T23:30:10;100134.63;;;12.96;64.70
54666;BME280;40566;50.006;36.180;2023-09-12T23:35:11;100144.19;;;12.94;64.33
54666;BME280;40566;50.006;36.180;2023-09-12T23:40:12;100148.63;;;12.90;64.75
54666;BME280;40566;50.006;36.180;2023-09-12T23:45:13;100142.69;;;12.86;64.90
54666;BME280;40566;50.006;36.180;2023-09-12T23:50:13;100142.84;;;12.82;64.88
54666;BME280;40566;50.006;36.180;2023-09-12T23:55:14;100144.63;;;12.80;64.85
